Airfield :
LOGIN :

Register | Disclaimer

   EN    FR    IT 

 










Legend :    VFR   Marginal VFR   IFR   Intensive IFR   Very Intensive IFR
Visi :
Ceiling :
>= 8 km
>= 3000ft
5 to 8 km
1000 to 3000 ft
1500m to 5 km
500 to 1000 ft
800 to 1500m
200 to 500 ft
< 800m
< 200 ft
Symbols :   Thunderstorms  Fog  Heavy snow  Heavy precipitations  Wind > 20 kt
SIGMETs :     Misc.  Thunderstorms  Icing  Turbulence  Mountain Waves  Volcanic Ashes







- Airport Elevation : 348 ft
- IATA code : STN
- Download approach charts


EGSS - London Stansted

CURRENT METAR :
  • 181350Z AUTO 23016KT 9999 SCT039 21/13 Q1010

EXPIRED METARs :
  • 181320Z AUTO 23014KT 9999 NCD 21/12 Q1009
  • 181250Z AUTO 24015KT 9999 FEW035 21/12 Q1009
  • 181220Z AUTO 23019KT 9999 NCD 20/12 Q1009
  • 181150Z AUTO 23020KT 9999 FEW030 21/12 Q1008
  • 181120Z AUTO 24016KT 9999 BKN030 21/13 Q1008

TAF TAF EGSS
Valid from the 18 at 12:00 until the 19 at 18:00 UTC


181108Z 1812/1918 24020KT 9999 SCT040
BECMG 1815/1818 21013KT
PROB30
TEMPO 1900/1909 BKN012
BECMG 1906/1909 20023G33KT
PROB40
TEMPO 1909/1913 6000 SHRA BKN012
PROB30
TEMPO 1917/1918 6000 SHRA BKN012
ATIS : +44 1279 669 325
No reported NOTAMs for that airfield.
2 SIGMETs reported for the London FIR (EGTT) :
 
Severe turbulence
EGTT SIGMET 08 VALID 181400/181800 EGRR
EGTT LONDON FIR SEV TURB FCST WI N5500 W00232 - N5500 E00458 - N5459 E00458 - N5348 E00354 - N5351 W00234 - N5458 W00234 - N5500 W00232 SFC/FL060 MOV NE 15KT NC=
Severe mountain waves
EGTT SIGMET 07 VALID 181400/181800 EGRR
EGTT LONDON FIR SEV MTW FCST WI N5221 E00156 - N5039 W00347 - N5209 W00411 - N5500 W00420 - N5500 E00203 - N5221 E00156 FL040/240 STNR NC=



MET'MAP, your aeronautical weather chart ! - Copyright ORBIFLY December 2007 - Disclaimer

ORBIFLY MET'MAP TEAM :

Programming & Development : Alexandra Zaïnal
Concept & Development : Baudouin d'Aumeries
Co-Development & Prog : Marc-Olivier Méhu
Technical & hardware support : Manuel Goepfert

Contact : metmap@orbifly.com




SOURCES & CREDITS :

   NOAA